sensor_id;sensor_type;location;lat;lon;timestamp;P1;durP1;ratioP1;P2;durP2;ratioP2
56345;SDS011;42246;46.096;13.644;2024-03-06T00:01:53;5.30;;;2.17;;
56345;SDS011;42246;46.096;13.644;2024-03-06T00:04:19;3.72;;;1.23;;
56345;SDS011;42246;46.096;13.644;2024-03-06T00:06:46;4.03;;;1.05;;
56345;SDS011;42246;46.096;13.644;2024-03-06T00:09:12;2.22;;;1.17;;
56345;SDS011;42246;46.096;13.644;2024-03-06T00:11:37;5.13;;;1.52;;
56345;SDS011;42246;46.096;13.644;2024-03-06T00:14:03;5.43;;;1.50;;
56345;SDS011;42246;46.096;13.644;2024-03-06T00:16:30;2.50;;;0.68;;
56345;SDS011;42246;46.096;13.644;2024-03-06T00:18:56;3.88;;;0.88;;
56345;SDS011;42246;46.096;13.644;2024-03-06T00:21:21;2.03;;;1.08;;
56345;SDS011;42246;46.096;13.644;2024-03-06T00:23:47;2.35;;;0.70;;
56345;SDS011;42246;46.096;13.644;2024-03-06T00:26:12;3.45;;;1.65;;
56345;SDS011;42246;46.096;13.644;2024-03-06T00:28:38;5.95;;;1.67;;
56345;SDS011;42246;46.096;13.644;2024-03-06T00:31:07;4.93;;;1.42;;
56345;SDS011;42246;46.096;13.644;2024-03-06T00:33:33;5.63;;;1.20;;
56345;SDS011;42246;46.096;13.644;2024-03-06T00:35:58;8.93;;;2.03;;
56345;SDS011;42246;46.096;13.644;2024-03-06T00:38:24;3.72;;;1.73;;
56345;SDS011;42246;46.096;13.644;2024-03-06T00:40:49;3.13;;;1.08;;
56345;SDS011;42246;46.096;13.644;2024-03-06T00:43:15;2.45;;;1.20;;
56345;SDS011;42246;46.096;13.644;2024-03-06T00:45:40;3.83;;;1.20;;
56345;SDS011;42246;46.096;13.644;2024-03-06T00:48:06;3.00;;;1.60;;
56345;SDS011;42246;46.096;13.644;2024-03-06T00:50:32;3.95;;;1.50;;
56345;SDS011;42246;46.096;13.644;2024-03-06T00:52:57;4.95;;;1.30;;
56345;SDS011;42246;46.096;13.644;2024-03-06T00:55:23;2.03;;;1.02;;
56345;SDS011;42246;46.096;13.644;2024-03-06T00:57:49;3.58;;;1.20;;
56345;SDS011;42246;46.096;13.644;2024-03-06T01:00:14;3.15;;;1.77;;
56345;SDS011;42246;46.096;13.644;2024-03-06T01:02:41;4.72;;;1.75;;
56345;SDS011;42246;46.096;13.644;2024-03-06T01:05:07;2.47;;;1.35;;
56345;SDS011;42246;46.096;13.644;2024-03-06T01:07:34;3.88;;;2.17;;
56345;SDS011;42246;46.096;13.644;2024-03-06T01:10:00;3.50;;;1.80;;
56345;SDS011;42246;46.096;13.644;2024-03-06T01:12:26;7.13;;;1.33;;
56345;SDS011;42246;46.096;13.644;2024-03-06T01:14:51;3.53;;;1.40;;
56345;SDS011;42246;46.096;13.644;2024-03-06T01:17:17;2.10;;;1.50;;
56345;SDS011;42246;46.096;13.644;2024-03-06T01:19:43;3.70;;;2.30;;
56345;SDS011;42246;46.096;13.644;2024-03-06T01:22:08;2.25;;;1.77;;
56345;SDS011;42246;46.096;13.644;2024-03-06T01:24:34;2.33;;;1.35;;
56345;SDS011;42246;46.096;13.644;2024-03-06T01:27:00;4.10;;;1.45;;
56345;SDS011;42246;46.096;13.644;2024-03-06T01:29:27;3.53;;;1.45;;
56345;SDS011;42246;46.096;13.644;2024-03-06T01:31:55;8.23;;;2.58;;
56345;SDS011;42246;46.096;13.644;2024-03-06T01:34:21;3.42;;;2.13;;
56345;SDS011;42246;46.096;13.644;2024-03-06T01:36:47;2.80;;;1.67;;
56345;SDS011;42246;46.096;13.644;2024-03-06T01:39:12;2.33;;;1.65;;
56345;SDS011;42246;46.096;13.644;2024-03-06T01:41:44;5.85;;;2.05;;
56345;SDS011;42246;46.096;13.644;2024-03-06T01:44:11;4.53;;;1.73;;
56345;SDS011;42246;46.096;13.644;2024-03-06T01:46:37;5.93;;;2.15;;
56345;SDS011;42246;46.096;13.644;2024-03-06T01:49:03;7.07;;;2.90;;
56345;SDS011;42246;46.096;13.644;2024-03-06T01:51:29;5.38;;;1.73;;
56345;SDS011;42246;46.096;13.644;2024-03-06T01:53:54;5.15;;;1.98;;
56345;SDS011;42246;46.096;13.644;2024-03-06T01:56:20;3.90;;;1.85;;
56345;SDS011;42246;46.096;13.644;2024-03-06T01:58:46;3.47;;;1.92;;
56345;SDS011;42246;46.096;13.644;2024-03-06T02:01:12;5.47;;;2.17;;
56345;SDS011;42246;46.096;13.644;2024-03-06T02:03:38;3.35;;;1.73;;
56345;SDS011;42246;46.096;13.644;2024-03-06T02:06:04;4.63;;;2.25;;
56345;SDS011;42246;46.096;13.644;2024-03-06T02:08:30;2.70;;;2.00;;
56345;SDS011;42246;46.096;13.644;2024-03-06T02:10:57;7.40;;;2.35;;
56345;SDS011;42246;46.096;13.644;2024-03-06T02:13:22;9.27;;;2.65;;
56345;SDS011;42246;46.096;13.644;2024-03-06T02:15:48;4.72;;;2.15;;
56345;SDS011;42246;46.096;13.644;2024-03-06T02:18:14;5.18;;;2.58;;
56345;SDS011;42246;46.096;13.644;2024-03-06T02:20:39;3.75;;;2.13;;
56345;SDS011;42246;46.096;13.644;2024-03-06T02:23:05;3.83;;;2.35;;
56345;SDS011;42246;46.096;13.644;2024-03-06T02:25:30;5.63;;;2.35;;
56345;SDS011;42246;46.096;13.644;2024-03-06T02:27:56;7.38;;;2.38;;
56345;SDS011;42246;46.096;13.644;2024-03-06T02:30:22;8.48;;;2.60;;
56345;SDS011;42246;46.096;13.644;2024-03-06T02:32:47;7.88;;;2.00;;
56345;SDS011;42246;46.096;13.644;2024-03-06T02:35:13;5.63;;;2.42;;
56345;SDS011;42246;46.096;13.644;2024-03-06T02:37:38;5.55;;;2.85;;
56345;SDS011;42246;46.096;13.644;2024-03-06T02:40:06;7.50;;;2.55;;
56345;SDS011;42246;46.096;13.644;2024-03-06T02:42:35;2.70;;;1.98;;
56345;SDS011;42246;46.096;13.644;2024-03-06T02:45:01;4.38;;;1.95;;
56345;SDS011;42246;46.096;13.644;2024-03-06T02:47:26;6.60;;;1.83;;
56345;SDS011;42246;46.096;13.644;2024-03-06T02:49:52;5.28;;;2.42;;
56345;SDS011;42246;46.096;13.644;2024-03-06T02:52:17;4.28;;;2.60;;
56345;SDS011;42246;46.096;13.644;2024-03-06T02:54:42;4.72;;;2.72;;
56345;SDS011;42246;46.096;13.644;2024-03-06T02:57:08;6.18;;;3.03;;
56345;SDS011;42246;46.096;13.644;2024-03-06T02:59:34;6.28;;;3.05;;
56345;SDS011;42246;46.096;13.644;2024-03-06T03:01:59;7.25;;;2.25;;
56345;SDS011;42246;46.096;13.644;2024-03-06T03:04:25;3.15;;;2.28;;
56345;SDS011;42246;46.096;13.644;2024-03-06T03:06:51;6.53;;;3.05;;
56345;SDS011;42246;46.096;13.644;2024-03-06T03:09:17;5.80;;;3.08;;
56345;SDS011;42246;46.096;13.644;2024-03-06T03:11:42;13.00;;;3.80;;
56345;SDS011;42246;46.096;13.644;2024-03-06T03:14:09;7.25;;;3.20;;
56345;SDS011;42246;46.096;13.644;2024-03-06T03:16:34;9.00;;;2.85;;
56345;SDS011;42246;46.096;13.644;2024-03-06T03:19:00;9.18;;;2.60;;
56345;SDS011;42246;46.096;13.644;2024-03-06T03:21:26;6.95;;;3.22;;
56345;SDS011;42246;46.096;13.644;2024-03-06T03:23:52;8.80;;;3.15;;
56345;SDS011;42246;46.096;13.644;2024-03-06T03:26:17;5.55;;;2.75;;
56345;SDS011;42246;46.096;13.644;2024-03-06T03:28:43;8.43;;;3.80;;
56345;SDS011;42246;46.096;13.644;2024-03-06T03:31:08;9.02;;;3.95;;
56345;SDS011;42246;46.096;13.644;2024-03-06T03:33:43;6.43;;;2.95;;
56345;SDS011;42246;46.096;13.644;2024-03-06T03:38:34;7.68;;;3.10;;
56345;SDS011;42246;46.096;13.644;2024-03-06T03:41:03;12.48;;;3.30;;
56345;SDS011;42246;46.096;13.644;2024-03-06T03:43:35;5.10;;;2.55;;
56345;SDS011;42246;46.096;13.644;2024-03-06T03:46:01;9.90;;;3.80;;
56345;SDS011;42246;46.096;13.644;2024-03-06T03:48:26;13.43;;;4.15;;
56345;SDS011;42246;46.096;13.644;2024-03-06T03:50:52;4.40;;;3.28;;
56345;SDS011;42246;46.096;13.644;2024-03-06T03:53:17;5.70;;;3.15;;
56345;SDS011;42246;46.096;13.644;2024-03-06T03:55:43;9.32;;;3.40;;
56345;SDS011;42246;46.096;13.644;2024-03-06T03:58:08;6.85;;;3.30;;
56345;SDS011;42246;46.096;13.644;2024-03-06T04:00:34;6.30;;;2.72;;
56345;SDS011;42246;46.096;13.644;2024-03-06T04:03:00;5.32;;;3.25;;
56345;SDS011;42246;46.096;13.644;2024-03-06T04:05:25;6.22;;;3.42;;
56345;SDS011;42246;46.096;13.644;2024-03-06T04:07:51;6.10;;;3.60;;
56345;SDS011;42246;46.096;13.644;2024-03-06T04:10:16;5.65;;;3.00;;
56345;SDS011;42246;46.096;13.644;2024-03-06T04:12:42;5.65;;;3.45;;
56345;SDS011;42246;46.096;13.644;2024-03-06T04:15:07;5.85;;;3.50;;
56345;SDS011;42246;46.096;13.644;2024-03-06T04:22:44;5.78;;;4.53;;
56345;SDS011;42246;46.096;13.644;2024-03-06T04:25:11;8.23;;;4.18;;
56345;SDS011;42246;46.096;13.644;2024-03-06T04:27:37;7.97;;;3.85;;
56345;SDS011;42246;46.096;13.644;2024-03-06T04:30:02;7.85;;;4.50;;
56345;SDS011;42246;46.096;13.644;2024-03-06T04:32:29;10.00;;;4.20;;
56345;SDS011;42246;46.096;13.644;2024-03-06T04:34:54;8.35;;;4.53;;
56345;SDS011;42246;46.096;13.644;2024-03-06T04:37:21;11.07;;;5.90;;
56345;SDS011;42246;46.096;13.644;2024-03-06T04:39:46;10.07;;;4.75;;
56345;SDS011;42246;46.096;13.644;2024-03-06T04:42:12;11.82;;;5.85;;
56345;SDS011;42246;46.096;13.644;2024-03-06T04:44:38;9.43;;;5.13;;
56345;SDS011;42246;46.096;13.644;2024-03-06T04:47:03;7.88;;;5.15;;
56345;SDS011;42246;46.096;13.644;2024-03-06T04:49:32;18.30;;;11.98;;
56345;SDS011;42246;46.096;13.644;2024-03-06T04:51:59;22.42;;;11.48;;
56345;SDS011;42246;46.096;13.644;2024-03-06T04:54:24;16.80;;;7.25;;
56345;SDS011;42246;46.096;13.644;2024-03-06T04:56:50;12.63;;;6.05;;
56345;SDS011;42246;46.096;13.644;2024-03-06T04:59:15;7.43;;;4.32;;
56345;SDS011;42246;46.096;13.644;2024-03-06T05:01:40;13.93;;;6.15;;
56345;SDS011;42246;46.096;13.644;2024-03-06T05:04:06;19.20;;;10.73;;
56345;SDS011;42246;46.096;13.644;2024-03-06T05:06:32;12.35;;;7.90;;
56345;SDS011;42246;46.096;13.644;2024-03-06T05:08:57;9.95;;;5.32;;
56345;SDS011;42246;46.096;13.644;2024-03-06T05:11:22;8.98;;;6.10;;
56345;SDS011;42246;46.096;13.644;2024-03-06T05:13:48;11.63;;;5.43;;
56345;SDS011;42246;46.096;13.644;2024-03-06T05:16:14;10.48;;;5.78;;
56345;SDS011;42246;46.096;13.644;2024-03-06T05:18:40;11.05;;;6.22;;
56345;SDS011;42246;46.096;13.644;2024-03-06T05:21:05;17.88;;;10.98;;
56345;SDS011;42246;46.096;13.644;2024-03-06T05:23:31;11.68;;;7.20;;
56345;SDS011;42246;46.096;13.644;2024-03-06T05:25:56;13.88;;;6.07;;
56345;SDS011;42246;46.096;13.644;2024-03-06T05:28:22;10.73;;;5.18;;
56345;SDS011;42246;46.096;13.644;2024-03-06T05:30:47;15.38;;;7.07;;
56345;SDS011;42246;46.096;13.644;2024-03-06T05:33:13;12.57;;;6.15;;
56345;SDS011;42246;46.096;13.644;2024-03-06T05:35:38;8.43;;;5.07;;
56345;SDS011;42246;46.096;13.644;2024-03-06T05:38:04;13.27;;;7.05;;
56345;SDS011;42246;46.096;13.644;2024-03-06T05:40:29;13.30;;;7.13;;
56345;SDS011;42246;46.096;13.644;2024-03-06T05:42:59;11.32;;;5.95;;
56345;SDS011;42246;46.096;13.644;2024-03-06T05:45:25;14.48;;;5.40;;
56345;SDS011;42246;46.096;13.644;2024-03-06T05:47:50;8.93;;;5.25;;
56345;SDS011;42246;46.096;13.644;2024-03-06T05:50:16;10.80;;;5.50;;
56345;SDS011;42246;46.096;13.644;2024-03-06T05:52:43;14.32;;;8.00;;
56345;SDS011;42246;46.096;13.644;2024-03-06T05:55:09;10.25;;;5.50;;
56345;SDS011;42246;46.096;13.644;2024-03-06T05:57:34;13.13;;;7.65;;
56345;SDS011;42246;46.096;13.644;2024-03-06T06:00:00;14.30;;;4.95;;
56345;SDS011;42246;46.096;13.644;2024-03-06T06:02:25;16.20;;;6.85;;
56345;SDS011;42246;46.096;13.644;2024-03-06T06:04:51;12.40;;;6.70;;
56345;SDS011;42246;46.096;13.644;2024-03-06T06:07:17;16.77;;;8.13;;
56345;SDS011;42246;46.096;13.644;2024-03-06T06:09:43;14.50;;;6.15;;
56345;SDS011;42246;46.096;13.644;2024-03-06T06:12:08;19.85;;;9.38;;
56345;SDS011;42246;46.096;13.644;2024-03-06T06:14:34;28.92;;;13.98;;
56345;SDS011;42246;46.096;13.644;2024-03-06T06:17:00;31.77;;;13.40;;
56345;SDS011;42246;46.096;13.644;2024-03-06T06:19:25;21.00;;;12.07;;
56345;SDS011;42246;46.096;13.644;2024-03-06T06:24:37;7.68;;;5.30;;
56345;SDS011;42246;46.096;13.644;2024-03-06T06:27:03;9.73;;;6.10;;
56345;SDS011;42246;46.096;13.644;2024-03-06T06:29:29;13.13;;;5.05;;
56345;SDS011;42246;46.096;13.644;2024-03-06T06:31:56;12.25;;;4.88;;
56345;SDS011;42246;46.096;13.644;2024-03-06T06:34:22;12.25;;;6.15;;
56345;SDS011;42246;46.096;13.644;2024-03-06T06:36:48;10.07;;;6.03;;
56345;SDS011;42246;46.096;13.644;2024-03-06T06:39:13;14.57;;;6.72;;
56345;SDS011;42246;46.096;13.644;2024-03-06T06:41:39;9.40;;;5.55;;
56345;SDS011;42246;46.096;13.644;2024-03-06T06:44:04;14.65;;;8.48;;
56345;SDS011;42246;46.096;13.644;2024-03-06T06:46:29;24.27;;;10.38;;
56345;SDS011;42246;46.096;13.644;2024-03-06T06:48:56;43.67;;;18.42;;
56345;SDS011;42246;46.096;13.644;2024-03-06T06:51:21;43.58;;;17.23;;
56345;SDS011;42246;46.096;13.644;2024-03-06T06:53:48;12.20;;;6.93;;
56345;SDS011;42246;46.096;13.644;2024-03-06T06:56:14;11.23;;;6.68;;
56345;SDS011;42246;46.096;13.644;2024-03-06T06:58:39;18.80;;;7.47;;
56345;SDS011;42246;46.096;13.644;2024-03-06T07:01:07;14.75;;;7.38;;
56345;SDS011;42246;46.096;13.644;2024-03-06T07:03:33;15.70;;;6.68;;
56345;SDS011;42246;46.096;13.644;2024-03-06T07:05:58;16.27;;;6.78;;
56345;SDS011;42246;46.096;13.644;2024-03-06T07:08:24;11.52;;;6.43;;
56345;SDS011;42246;46.096;13.644;2024-03-06T07:10:49;14.00;;;8.30;;
56345;SDS011;42246;46.096;13.644;2024-03-06T07:13:15;18.08;;;7.80;;
56345;SDS011;42246;46.096;13.644;2024-03-06T07:15:42;37.38;;;15.25;;
56345;SDS011;42246;46.096;13.644;2024-03-06T07:18:08;37.17;;;16.48;;
56345;SDS011;42246;46.096;13.644;2024-03-06T07:20:33;45.22;;;19.17;;
56345;SDS011;42246;46.096;13.644;2024-03-06T07:22:59;17.88;;;9.63;;
56345;SDS011;42246;46.096;13.644;2024-03-06T07:25:24;21.08;;;8.82;;
56345;SDS011;42246;46.096;13.644;2024-03-06T07:27:50;13.40;;;7.85;;
56345;SDS011;42246;46.096;13.644;2024-03-06T07:30:15;11.23;;;6.72;;
56345;SDS011;42246;46.096;13.644;2024-03-06T07:32:41;14.48;;;7.47;;
56345;SDS011;42246;46.096;13.644;2024-03-06T07:35:06;14.68;;;7.10;;
56345;SDS011;42246;46.096;13.644;2024-03-06T07:37:32;13.85;;;6.63;;
56345;SDS011;42246;46.096;13.644;2024-03-06T07:39:58;11.13;;;5.88;;
56345;SDS011;42246;46.096;13.644;2024-03-06T07:42:25;11.13;;;5.72;;
56345;SDS011;42246;46.096;13.644;2024-03-06T07:44:51;11.88;;;6.28;;
56345;SDS011;42246;46.096;13.644;2024-03-06T07:47:16;14.82;;;5.95;;
56345;SDS011;42246;46.096;13.644;2024-03-06T07:49:42;11.55;;;7.30;;
56345;SDS011;42246;46.096;13.644;2024-03-06T07:52:09;10.82;;;6.43;;
56345;SDS011;42246;46.096;13.644;2024-03-06T07:54:35;11.13;;;6.47;;
56345;SDS011;42246;46.096;13.644;2024-03-06T07:57:00;10.68;;;7.25;;
56345;SDS011;42246;46.096;13.644;2024-03-06T07:59:26;9.57;;;6.38;;
56345;SDS011;42246;46.096;13.644;2024-03-06T08:01:52;12.93;;;6.78;;
56345;SDS011;42246;46.096;13.644;2024-03-06T08:04:17;12.93;;;7.47;;
56345;SDS011;42246;46.096;13.644;2024-03-06T08:06:43;10.35;;;4.88;;
56345;SDS011;42246;46.096;13.644;2024-03-06T08:09:08;12.65;;;6.28;;
56345;SDS011;42246;46.096;13.644;2024-03-06T08:11:34;14.93;;;6.05;;
56345;SDS011;42246;46.096;13.644;2024-03-06T08:14:00;10.25;;;6.07;;
56345;SDS011;42246;46.096;13.644;2024-03-06T08:16:27;12.38;;;5.20;;
56345;SDS011;42246;46.096;13.644;2024-03-06T08:18:53;15.43;;;6.10;;
56345;SDS011;42246;46.096;13.644;2024-03-06T08:21:18;9.13;;;5.35;;
56345;SDS011;42246;46.096;13.644;2024-03-06T08:23:45;10.93;;;6.07;;
56345;SDS011;42246;46.096;13.644;2024-03-06T08:26:12;10.85;;;6.32;;
56345;SDS011;42246;46.096;13.644;2024-03-06T08:28:38;9.23;;;5.22;;
56345;SDS011;42246;46.096;13.644;2024-03-06T08:31:03;14.18;;;5.75;;
56345;SDS011;42246;46.096;13.644;2024-03-06T08:33:29;9.60;;;5.70;;
56345;SDS011;42246;46.096;13.644;2024-03-06T08:35:54;11.35;;;6.43;;
56345;SDS011;42246;46.096;13.644;2024-03-06T08:38:20;8.70;;;5.00;;
56345;SDS011;42246;46.096;13.644;2024-03-06T08:40:45;15.13;;;6.32;;
56345;SDS011;42246;46.096;13.644;2024-03-06T08:43:13;18.48;;;7.63;;
56345;SDS011;42246;46.096;13.644;2024-03-06T08:45:40;14.82;;;7.07;;
56345;SDS011;42246;46.096;13.644;2024-03-06T08:48:06;14.13;;;7.78;;
56345;SDS011;42246;46.096;13.644;2024-03-06T08:50:32;12.82;;;6.72;;
56345;SDS011;42246;46.096;13.644;2024-03-06T08:52:57;13.13;;;7.80;;
56345;SDS011;42246;46.096;13.644;2024-03-06T08:55:23;15.68;;;7.95;;
56345;SDS011;42246;46.096;13.644;2024-03-06T08:57:48;10.77;;;7.00;;
56345;SDS011;42246;46.096;13.644;2024-03-06T09:00:15;16.25;;;8.25;;
56345;SDS011;42246;46.096;13.644;2024-03-06T09:02:42;11.88;;;6.95;;
56345;SDS011;42246;46.096;13.644;2024-03-06T09:05:08;13.63;;;8.60;;
56345;SDS011;42246;46.096;13.644;2024-03-06T09:07:35;13.25;;;7.13;;
56345;SDS011;42246;46.096;13.644;2024-03-06T09:10:06;13.63;;;7.07;;
56345;SDS011;42246;46.096;13.644;2024-03-06T09:12:32;13.13;;;7.32;;
56345;SDS011;42246;46.096;13.644;2024-03-06T09:14:58;22.00;;;7.95;;
56345;SDS011;42246;46.096;13.644;2024-03-06T09:17:25;14.50;;;8.10;;
56345;SDS011;42246;46.096;13.644;2024-03-06T09:19:51;13.73;;;7.72;;
56345;SDS011;42246;46.096;13.644;2024-03-06T09:22:16;14.20;;;7.28;;
56345;SDS011;42246;46.096;13.644;2024-03-06T09:24:42;15.15;;;6.82;;
56345;SDS011;42246;46.096;13.644;2024-03-06T09:27:08;14.25;;;7.57;;
56345;SDS011;42246;46.096;13.644;2024-03-06T09:29:33;16.65;;;7.00;;
56345;SDS011;42246;46.096;13.644;2024-03-06T09:31:59;12.43;;;6.38;;
56345;SDS011;42246;46.096;13.644;2024-03-06T09:34:24;11.88;;;6.15;;
56345;SDS011;42246;46.096;13.644;2024-03-06T09:36:50;13.63;;;6.40;;
56345;SDS011;42246;46.096;13.644;2024-03-06T09:39:17;9.10;;;5.63;;
56345;SDS011;42246;46.096;13.644;2024-03-06T09:41:44;13.75;;;6.15;;
56345;SDS011;42246;46.096;13.644;2024-03-06T09:44:11;14.93;;;8.13;;
56345;SDS011;42246;46.096;13.644;2024-03-06T09:46:37;15.10;;;10.43;;
56345;SDS011;42246;46.096;13.644;2024-03-06T09:49:03;14.70;;;7.97;;
56345;SDS011;42246;46.096;13.644;2024-03-06T09:51:28;10.90;;;6.95;;
56345;SDS011;42246;46.096;13.644;2024-03-06T09:53:55;9.95;;;6.07;;
56345;SDS011;42246;46.096;13.644;2024-03-06T09:56:21;10.27;;;6.30;;
56345;SDS011;42246;46.096;13.644;2024-03-06T09:58:46;13.55;;;6.85;;
56345;SDS011;42246;46.096;13.644;2024-03-06T10:01:15;9.82;;;5.57;;
56345;SDS011;42246;46.096;13.644;2024-03-06T10:03:41;10.27;;;6.53;;
56345;SDS011;42246;46.096;13.644;2024-03-06T10:06:07;9.48;;;6.38;;
56345;SDS011;42246;46.096;13.644;2024-03-06T10:08:33;15.95;;;8.20;;
56345;SDS011;42246;46.096;13.644;2024-03-06T10:10:58;10.95;;;5.80;;
56345;SDS011;42246;46.096;13.644;2024-03-06T10:13:24;7.70;;;5.57;;
56345;SDS011;42246;46.096;13.644;2024-03-06T10:18:21;6.55;;;4.05;;
56345;SDS011;42246;46.096;13.644;2024-03-06T10:20:47;9.73;;;4.57;;
56345;SDS011;42246;46.096;13.644;2024-03-06T10:23:12;7.07;;;3.72;;
56345;SDS011;42246;46.096;13.644;2024-03-06T10:25:39;8.27;;;4.80;;
56345;SDS011;42246;46.096;13.644;2024-03-06T10:28:08;8.10;;;3.90;;
56345;SDS011;42246;46.096;13.644;2024-03-06T10:30:36;7.90;;;4.10;;
56345;SDS011;42246;46.096;13.644;2024-03-06T10:33:03;8.02;;;3.88;;
56345;SDS011;42246;46.096;13.644;2024-03-06T10:35:31;5.60;;;3.70;;
56345;SDS011;42246;46.096;13.644;2024-03-06T10:37:57;4.75;;;2.78;;
56345;SDS011;42246;46.096;13.644;2024-03-06T10:40:26;6.38;;;3.63;;
56345;SDS011;42246;46.096;13.644;2024-03-06T10:42:55;8.98;;;3.47;;
56345;SDS011;42246;46.096;13.644;2024-03-06T10:45:21;9.02;;;3.65;;
56345;SDS011;42246;46.096;13.644;2024-03-06T10:47:49;8.05;;;3.95;;
56345;SDS011;42246;46.096;13.644;2024-03-06T10:50:16;10.35;;;4.50;;
56345;SDS011;42246;46.096;13.644;2024-03-06T10:52:43;9.65;;;4.00;;
56345;SDS011;42246;46.096;13.644;2024-03-06T10:55:12;5.80;;;2.97;;
56345;SDS011;42246;46.096;13.644;2024-03-06T10:57:37;6.78;;;4.10;;
56345;SDS011;42246;46.096;13.644;2024-03-06T11:00:05;4.75;;;3.20;;
56345;SDS011;42246;46.096;13.644;2024-03-06T11:02:31;7.57;;;4.00;;
56345;SDS011;42246;46.096;13.644;2024-03-06T11:04:57;11.82;;;4.57;;
56345;SDS011;42246;46.096;13.644;2024-03-06T11:07:24;5.75;;;3.58;;
56345;SDS011;42246;46.096;13.644;2024-03-06T11:09:49;8.20;;;3.28;;
56345;SDS011;42246;46.096;13.644;2024-03-06T11:15:13;3.85;;;2.17;;
56345;SDS011;42246;46.096;13.644;2024-03-06T11:17:40;2.45;;;1.35;;
56345;SDS011;42246;46.096;13.644;2024-03-06T11:33:38;1.83;;;1.08;;
56345;SDS011;42246;46.096;13.644;2024-03-06T11:38:52;1.23;;;0.75;;
56345;SDS011;42246;46.096;13.644;2024-03-06T11:42:03;0.65;;;0.52;;
56345;SDS011;42246;46.096;13.644;2024-03-06T11:44:15;0.50;;;0.30;;
56345;SDS011;42246;46.096;13.644;2024-03-06T11:46:47;1.05;;;0.40;;
56345;SDS011;42246;46.096;13.644;2024-03-06T11:51:49;0.70;;;0.30;;
56345;SDS011;42246;46.096;13.644;2024-03-06T11:54:21;0.63;;;0.20;;
56345;SDS011;42246;46.096;13.644;2024-03-06T11:56:52;0.80;;;0.50;;
56345;SDS011;42246;46.096;13.644;2024-03-06T12:01:51;0.50;;;0.30;;
56345;SDS011;42246;46.096;13.644;2024-03-06T12:04:21;1.75;;;0.40;;
56345;SDS011;42246;46.096;13.644;2024-03-06T12:06:47;0.63;;;0.32;;
56345;SDS011;42246;46.096;13.644;2024-03-06T12:09:13;0.90;;;0.30;;
56345;SDS011;42246;46.096;13.644;2024-03-06T12:11:38;1.13;;;0.50;;
56345;SDS011;42246;46.096;13.644;2024-03-06T12:14:04;1.70;;;0.60;;
56345;SDS011;42246;46.096;13.644;2024-03-06T12:16:30;6.03;;;0.57;;
56345;SDS011;42246;46.096;13.644;2024-03-06T12:18:56;0.45;;;0.40;;
56345;SDS011;42246;46.096;13.644;2024-03-06T12:21:29;1.58;;;0.50;;
56345;SDS011;42246;46.096;13.644;2024-03-06T12:24:05;0.60;;;0.38;;
56345;SDS011;42246;46.096;13.644;2024-03-06T12:26:34;1.33;;;0.50;;
56345;SDS011;42246;46.096;13.644;2024-03-06T12:29:05;3.53;;;0.50;;
56345;SDS011;42246;46.096;13.644;2024-03-06T12:31:31;0.80;;;0.50;;
56345;SDS011;42246;46.096;13.644;2024-03-06T12:33:57;1.55;;;0.60;;
56345;SDS011;42246;46.096;13.644;2024-03-06T12:36:27;2.38;;;0.60;;
56345;SDS011;42246;46.096;13.644;2024-03-06T12:38:55;2.40;;;0.40;;
56345;SDS011;42246;46.096;13.644;2024-03-06T12:41:21;1.65;;;0.77;;
56345;SDS011;42246;46.096;13.644;2024-03-06T12:43:47;0.95;;;0.50;;
56345;SDS011;42246;46.096;13.644;2024-03-06T12:46:12;1.27;;;0.65;;
56345;SDS011;42246;46.096;13.644;2024-03-06T12:48:38;0.95;;;0.52;;
56345;SDS011;42246;46.096;13.644;2024-03-06T12:51:03;1.10;;;0.60;;
56345;SDS011;42246;46.096;13.644;2024-03-06T12:53:32;1.67;;;0.77;;
56345;SDS011;42246;46.096;13.644;2024-03-06T12:56:01;1.08;;;0.40;;
56345;SDS011;42246;46.096;13.644;2024-03-06T12:58:26;1.08;;;0.60;;
56345;SDS011;42246;46.096;13.644;2024-03-06T13:00:52;1.42;;;0.68;;
56345;SDS011;42246;46.096;13.644;2024-03-06T13:03:19;0.55;;;0.50;;
56345;SDS011;42246;46.096;13.644;2024-03-06T13:05:44;2.45;;;0.63;;
56345;SDS011;42246;46.096;13.644;2024-03-06T13:08:11;1.33;;;0.50;;
56345;SDS011;42246;46.096;13.644;2024-03-06T13:10:39;0.77;;;0.50;;
56345;SDS011;42246;46.096;13.644;2024-03-06T13:13:05;1.05;;;0.70;;
56345;SDS011;42246;46.096;13.644;2024-03-06T13:15:32;2.53;;;0.82;;
56345;SDS011;42246;46.096;13.644;2024-03-06T13:17:59;1.77;;;0.80;;
56345;SDS011;42246;46.096;13.644;2024-03-06T13:20:27;0.90;;;0.38;;
56345;SDS011;42246;46.096;13.644;2024-03-06T13:22:52;2.65;;;0.70;;
56345;SDS011;42246;46.096;13.644;2024-03-06T13:25:17;1.08;;;0.70;;
56345;SDS011;42246;46.096;13.644;2024-03-06T13:27:44;0.52;;;0.28;;
56345;SDS011;42246;46.096;13.644;2024-03-06T13:30:09;3.63;;;0.40;;
56345;SDS011;42246;46.096;13.644;2024-03-06T13:32:37;0.63;;;0.28;;
56345;SDS011;42246;46.096;13.644;2024-03-06T13:35:03;0.50;;;0.20;;
56345;SDS011;42246;46.096;13.644;2024-03-06T13:37:28;1.25;;;0.25;;
56345;SDS011;42246;46.096;13.644;2024-03-06T13:39:54;0.50;;;0.30;;
56345;SDS011;42246;46.096;13.644;2024-03-06T13:42:25;0.38;;;0.20;;
56345;SDS011;42246;46.096;13.644;2024-03-06T13:44:51;0.43;;;0.30;;
56345;SDS011;42246;46.096;13.644;2024-03-06T13:47:17;0.98;;;0.30;;
56345;SDS011;42246;46.096;13.644;2024-03-06T13:49:42;0.32;;;0.20;;
56345;SDS011;42246;46.096;13.644;2024-03-06T13:52:08;0.70;;;0.22;;
56345;SDS011;42246;46.096;13.644;2024-03-06T13:54:37;1.95;;;0.50;;
56345;SDS011;42246;46.096;13.644;2024-03-06T13:57:03;1.70;;;0.20;;
56345;SDS011;42246;46.096;13.644;2024-03-06T13:59:32;0.73;;;0.20;;
56345;SDS011;42246;46.096;13.644;2024-03-06T14:01:58;2.10;;;0.40;;
56345;SDS011;42246;46.096;13.644;2024-03-06T14:04:24;1.20;;;0.40;;
56345;SDS011;42246;46.096;13.644;2024-03-06T14:06:50;0.35;;;0.15;;
56345;SDS011;42246;46.096;13.644;2024-03-06T14:09:16;0.43;;;0.20;;
56345;SDS011;42246;46.096;13.644;2024-03-06T14:11:41;1.20;;;0.38;;
56345;SDS011;42246;46.096;13.644;2024-03-06T14:14:07;0.38;;;0.20;;
56345;SDS011;42246;46.096;13.644;2024-03-06T14:16:34;0.35;;;0.20;;
56345;SDS011;42246;46.096;13.644;2024-03-06T14:19:00;1.05;;;0.20;;
56345;SDS011;42246;46.096;13.644;2024-03-06T14:21:26;0.90;;;0.25;;
56345;SDS011;42246;46.096;13.644;2024-03-06T14:23:51;1.50;;;0.40;;
56345;SDS011;42246;46.096;13.644;2024-03-06T14:26:17;1.02;;;0.22;;
56345;SDS011;42246;46.096;13.644;2024-03-06T14:28:43;0.40;;;0.15;;
56345;SDS011;42246;46.096;13.644;2024-03-06T14:31:08;0.65;;;0.10;;
56345;SDS011;42246;46.096;13.644;2024-03-06T14:33:39;0.40;;;0.20;;
56345;SDS011;42246;46.096;13.644;2024-03-06T14:36:05;0.88;;;0.30;;
56345;SDS011;42246;46.096;13.644;2024-03-06T14:38:31;0.52;;;0.20;;
56345;SDS011;42246;46.096;13.644;2024-03-06T14:40:57;0.55;;;0.17;;
56345;SDS011;42246;46.096;13.644;2024-03-06T14:43:24;0.40;;;0.10;;
56345;SDS011;42246;46.096;13.644;2024-03-06T14:45:49;0.60;;;0.25;;
56345;SDS011;42246;46.096;13.644;2024-03-06T14:48:15;0.40;;;0.28;;
56345;SDS011;42246;46.096;13.644;2024-03-06T14:50:40;1.30;;;0.20;;
56345;SDS011;42246;46.096;13.644;2024-03-06T14:53:06;0.38;;;0.22;;
56345;SDS011;42246;46.096;13.644;2024-03-06T14:55:31;0.70;;;0.52;;
56345;SDS011;42246;46.096;13.644;2024-03-06T14:57:57;0.45;;;0.22;;
56345;SDS011;42246;46.096;13.644;2024-03-06T15:00:23;0.20;;;0.20;;